createdAt,value
2022-10-17T00:00:01.051Z,99735.41
2022-10-17T00:03:03.923Z,99730.22
2022-10-17T00:06:14.848Z,99733.66
2022-10-17T00:09:17.306Z,99742.63
2022-10-17T00:12:20.275Z,99736.22
2022-10-17T00:15:23.274Z,99742.59
2022-10-17T00:18:26.288Z,99742.34
2022-10-17T00:21:29.038Z,99745.12
2022-10-17T00:24:31.954Z,99742.34
2022-10-17T00:27:36.588Z,99741.41
2022-10-17T00:30:39.905Z,99729.91
2022-10-17T00:33:44.112Z,99747.88
2022-10-17T00:36:46.925Z,99686.38
2022-10-17T00:39:49.664Z,99749.03
2022-10-17T00:42:53.425Z,99745.38
2022-10-17T00:45:56.889Z,99741.09
2022-10-17T00:49:08.767Z,99747.25
2022-10-17T00:52:37.550Z,99744.59
2022-10-17T00:55:51.877Z,99737.50
2022-10-17T00:58:56.370Z,99744.78
2022-10-17T01:02:05.845Z,99739.41
2022-10-17T01:05:08.995Z,99739.44
2022-10-17T01:08:12.480Z,99719.37
2022-10-17T01:11:36.921Z,99741.69
2022-10-17T01:14:42.359Z,99738.25
2022-10-17T01:17:50.963Z,99737.72
2022-10-17T01:20:56.742Z,99733.34
2022-10-17T01:24:26.459Z,99735.28
2022-10-17T01:27:42.483Z,99731.81
2022-10-17T01:31:08.771Z,99729.09
2022-10-17T01:34:39.387Z,99739.00
2022-10-17T01:41:07.648Z,99740.22
2022-10-17T01:44:16.175Z,99734.22
2022-10-17T01:47:22.139Z,99739.66
2022-10-17T01:50:31.014Z,99745.19
2022-10-17T01:53:38.711Z,99744.41
2022-10-17T01:56:42.926Z,99753.56
2022-10-17T01:59:48.770Z,99743.94
2022-10-17T02:02:55.449Z,99741.47
2022-10-17T02:05:58.251Z,99752.34
2022-10-17T02:09:00.808Z,99744.31
2022-10-17T02:12:30.338Z,99744.47
2022-10-17T02:16:02.294Z,99739.16
2022-10-17T02:19:26.699Z,99734.75
2022-10-17T02:22:41.604Z,99751.91
2022-10-17T02:26:06.434Z,99745.91
2022-10-17T02:29:19.808Z,99757.59
2022-10-17T02:32:40.395Z,99757.66
2022-10-17T02:35:47.775Z,99759.59
2022-10-17T02:38:51.930Z,99756.09
2022-10-17T02:41:56.460Z,99758.88
2022-10-17T02:45:01.178Z,99757.13
2022-10-17T02:48:07.063Z,99751.81
2022-10-17T02:51:38.146Z,99759.06
2022-10-17T02:54:41.984Z,99768.91
2022-10-17T02:57:54.091Z,99767.22
2022-10-17T03:00:57.046Z,99759.25
2022-10-17T03:04:12.393Z,99767.28
2022-10-17T03:07:14.909Z,99766.44
2022-10-17T03:10:18.599Z,99761.94
2022-10-17T03:13:21.469Z,99779.84
2022-10-17T03:16:25.387Z,99772.69
2022-10-17T03:19:27.958Z,99775.38
2022-10-17T03:22:31.438Z,99773.63
2022-10-17T03:25:35.348Z,99786.16
2022-10-17T03:28:38.353Z,99782.63
2022-10-17T03:31:40.972Z,99781.78
2022-10-17T03:34:44.110Z,99778.25
2022-10-17T03:37:46.668Z,99784.59
2022-10-17T03:40:56.597Z,99779.28
2022-10-17T03:43:59.371Z,99797.25
2022-10-17T03:47:03.072Z,99795.53
2022-10-17T03:50:06.621Z,99784.97
2022-10-17T03:53:09.800Z,99797.50
2022-10-17T03:56:23.927Z,99801.13
2022-10-17T03:59:27.748Z,99811.03
2022-10-17T04:02:30.959Z,99795.13
2022-10-17T04:05:33.817Z,99803.22
2022-10-17T04:08:36.475Z,99816.53
2022-10-17T04:11:40.413Z,99818.34
2022-10-17T04:14:43.066Z,99822.84
2022-10-17T04:17:48.497Z,99822.00
2022-10-17T04:20:51.741Z,99826.50
2022-10-17T04:23:56.448Z,99822.09
2022-10-17T04:27:01.632Z,99820.44
2022-10-17T04:30:04.852Z,99815.91
2022-10-17T04:33:07.933Z,99824.81
2022-10-17T04:36:18.413Z,99818.59
2022-10-17T04:39:20.969Z,99831.16
2022-10-17T04:42:23.806Z,99827.56
2022-10-17T04:45:26.933Z,99836.53
2022-10-17T04:48:32.390Z,99837.47
2022-10-17T04:51:34.975Z,99838.41
2022-10-17T04:54:39.593Z,99843.81
2022-10-17T04:57:42.307Z,99844.72
2022-10-17T05:00:45.765Z,99846.59
2022-10-17T05:03:48.895Z,99848.37
2022-10-17T05:06:52.119Z,99850.09
2022-10-17T05:09:58.785Z,99847.00
2022-10-17T05:13:01.648Z,99852.75
2022-10-17T05:16:05.133Z,99846.50
2022-10-17T05:19:07.978Z,99856.72
2022-10-17T05:22:11.405Z,99860.25
2022-10-17T05:25:14.997Z,99859.78
2022-10-17T05:28:17.750Z,99866.41
2022-10-17T05:31:22.005Z,99876.47
2022-10-17T05:34:25.136Z,99876.63
2022-10-17T05:37:29.546Z,99879.44
2022-10-17T05:40:34.539Z,99889.25
2022-10-17T05:43:38.263Z,99892.88
2022-10-17T05:46:41.285Z,99887.41
2022-10-17T05:49:48.531Z,99896.44
2022-10-17T05:52:55.114Z,99906.25
2022-10-17T05:55:59.617Z,99916.13
2022-10-17T05:59:02.474Z,99907.19
2022-10-17T06:02:06.056Z,99921.34
2022-10-17T06:05:09.122Z,99928.44
2022-10-17T06:08:11.934Z,99933.78
2022-10-17T06:11:18.503Z,99938.22
2022-10-17T06:14:21.753Z,99943.56
2022-10-17T06:17:25.692Z,99945.25
2022-10-17T06:20:28.566Z,99943.41
2022-10-17T06:23:31.759Z,99957.69
2022-10-17T06:26:35.336Z,99961.13
2022-10-17T06:29:38.250Z,99966.34
2022-10-17T06:32:41.822Z,99974.31
2022-10-17T06:35:44.675Z,99975.94
2022-10-17T06:38:47.468Z,99974.91
2022-10-17T06:41:52.110Z,99971.16
2022-10-17T06:44:55.065Z,99955.00
2022-10-17T06:47:58.025Z,99978.84
2022-10-17T06:51:02.332Z,99975.84
2022-10-17T06:54:08.125Z,99980.94
2022-10-17T06:57:11.334Z,99988.88
2022-10-17T07:00:15.129Z,99986.88
2022-10-17T07:03:17.966Z,99999.97
2022-10-17T07:06:20.775Z,99977.63
2022-10-17T07:09:24.293Z,99992.38
2022-10-17T07:12:27.411Z,99997.31
2022-10-17T07:15:32.456Z,99997.19
2022-10-17T07:18:35.983Z,99997.91
2022-10-17T07:21:39.349Z,100004.66
2022-10-17T07:24:42.774Z,100008.69
2022-10-17T07:27:49.386Z,100000.37
2022-10-17T07:30:53.805Z,100013.22
2022-10-17T07:33:59.575Z,100011.91
2022-10-17T07:37:03.340Z,100021.34
2022-10-17T07:40:07.528Z,100017.09
2022-10-17T07:43:10.585Z,100022.44
2022-10-17T07:46:13.302Z,100024.63
2022-10-17T07:49:16.391Z,100015.19
2022-10-17T07:52:18.998Z,100028.44
2022-10-17T07:55:21.793Z,100035.78
2022-10-17T07:58:24.407Z,100026.44
2022-10-17T08:01:28.236Z,100035.03
2022-10-17T08:04:31.163Z,100034.88
2022-10-17T08:07:33.671Z,100032.94
2022-10-17T08:10:36.952Z,100036.47
2022-10-17T08:13:40.334Z,100037.13
2022-10-17T08:16:43.456Z,100033.16
2022-10-17T08:19:46.010Z,100044.25
2022-10-17T08:22:53.066Z,100045.38
2022-10-17T08:25:59.277Z,100040.72
2022-10-17T08:29:02.250Z,100037.37
2022-10-17T08:32:07.619Z,100036.63
2022-10-17T08:35:11.936Z,100041.44
2022-10-17T08:38:15.281Z,100041.63
2022-10-17T08:41:34.353Z,100046.47
2022-10-17T08:44:45.728Z,100045.88
2022-10-17T08:47:54.943Z,100042.44
2022-10-17T08:51:33.223Z,100033.69
2022-10-17T08:54:43.028Z,100040.19
2022-10-17T08:57:47.957Z,100041.94
2022-10-17T09:01:19.644Z,100045.47
2022-10-17T09:04:37.892Z,100046.94
2022-10-17T09:08:06.390Z,100039.22
2022-10-17T09:11:20.955Z,100036.19
2022-10-17T09:15:05.815Z,100041.03
2022-10-17T09:18:21.145Z,100039.19
2022-10-17T09:21:44.683Z,100040.91
2022-10-17T09:24:55.548Z,100043.19
2022-10-17T09:28:11.142Z,100040.78
2022-10-17T09:31:29.587Z,100032.44
2022-10-17T09:34:33.000Z,100044.81
2022-10-17T09:37:35.466Z,100041.91
2022-10-17T09:40:38.335Z,100039.34
2022-10-17T09:43:41.445Z,100033.66
2022-10-17T09:47:10.575Z,100035.84
2022-10-17T09:50:25.094Z,100027.00
2022-10-17T09:53:32.311Z,100040.50
2022-10-17T09:57:01.222Z,100033.28
2022-10-17T10:00:06.491Z,100041.75
2022-10-17T10:03:16.172Z,100041.19
2022-10-17T10:06:20.480Z,100043.25
2022-10-17T10:09:25.953Z,100054.59
2022-10-17T10:12:34.997Z,100041.03
2022-10-17T10:15:41.402Z,100044.59
2022-10-17T10:18:48.662Z,100034.94
2022-10-17T10:21:57.900Z,100043.72
2022-10-17T10:25:08.589Z,100034.13
2022-10-17T10:28:12.051Z,100048.25
2022-10-17T10:31:14.870Z,100040.19
2022-10-17T10:34:29.495Z,100031.81
2022-10-17T10:37:41.142Z,100038.88
2022-10-17T10:40:47.368Z,100029.19
2022-10-17T10:43:51.679Z,100033.28
2022-10-17T10:47:17.153Z,100027.31
2022-10-17T10:50:45.085Z,100028.53
2022-10-17T10:54:16.012Z,100019.03
2022-10-17T10:57:21.773Z,100031.81
2022-10-17T11:00:26.807Z,100024.50
2022-10-17T11:03:36.451Z,100018.06
2022-10-17T11:06:42.350Z,99999.66
2022-10-17T11:09:45.074Z,100014.84
2022-10-17T11:12:52.492Z,100015.75
2022-10-17T11:16:18.270Z,100008.75
2022-10-17T11:19:35.755Z,100012.59
2022-10-17T11:22:47.765Z,99961.31
2022-10-17T11:25:51.952Z,100015.38
2022-10-17T11:28:56.036Z,100017.34
2022-10-17T11:32:03.982Z,99999.22
2022-10-17T11:35:15.668Z,100004.62
2022-10-17T11:38:40.598Z,100002.38
2022-10-17T11:41:55.426Z,100010.88
2022-10-17T11:45:08.115Z,100010.59
2022-10-17T11:48:22.138Z,99981.41
2022-10-17T11:54:53.086Z,99993.66
2022-10-17T11:58:23.110Z,99978.94
2022-10-17T12:01:33.059Z,99998.03
2022-10-17T12:04:57.293Z,99992.94
2022-10-17T12:08:15.786Z,99991.81
2022-10-17T12:11:34.600Z,99988.31
2022-10-17T12:14:41.601Z,99986.19
2022-10-17T12:17:45.481Z,99987.06
2022-10-17T12:20:59.261Z,99971.88
2022-10-17T12:24:01.970Z,99981.75
2022-10-17T12:27:34.405Z,99982.50
2022-10-17T12:30:37.550Z,99969.91
2022-10-17T12:33:45.988Z,99973.19
2022-10-17T12:36:48.888Z,99969.44
2022-10-17T12:39:51.455Z,99969.09
2022-10-17T12:42:54.288Z,99965.53
2022-10-17T12:45:58.209Z,99950.66
2022-10-17T12:49:03.202Z,99960.94
2022-10-17T12:52:14.946Z,99960.84
2022-10-17T12:55:19.515Z,99954.09
2022-10-17T12:58:22.023Z,99947.00
2022-10-17T13:01:29.038Z,99954.34
2022-10-17T13:04:32.031Z,99947.22
2022-10-17T13:07:36.145Z,99952.75
2022-10-17T13:10:41.797Z,99951.44
2022-10-17T13:13:52.217Z,99947.28
2022-10-17T13:17:00.956Z,99953.81
2022-10-17T13:20:04.183Z,99944.34
2022-10-17T13:23:06.656Z,99942.69
2022-10-17T13:26:12.358Z,99944.78
2022-10-17T13:29:15.983Z,99942.25
2022-10-17T13:32:18.973Z,99942.47
2022-10-17T13:35:55.274Z,99939.63
2022-10-17T13:38:54.147Z,99923.53
2022-10-17T13:41:58.124Z,99946.72
2022-10-17T13:45:00.883Z,99928.25
2022-10-17T13:48:05.861Z,99941.66
2022-10-17T13:51:11.086Z,99923.91
2022-10-17T13:54:26.087Z,99933.44
2022-10-17T13:57:31.856Z,99933.41
2022-10-17T14:00:35.923Z,99940.09
2022-10-17T14:03:48.246Z,99935.59
2022-10-17T14:06:52.553Z,99936.19
2022-10-17T14:09:55.439Z,99940.03
2022-10-17T14:12:58.499Z,99931.50
2022-10-17T14:16:03.162Z,99934.75
2022-10-17T14:19:07.279Z,99927.91
2022-10-17T14:22:17.811Z,99925.75
2022-10-17T14:25:38.269Z,99919.50
2022-10-17T14:28:43.111Z,99929.19
2022-10-17T14:31:47.654Z,99925.66
2022-10-17T14:35:05.559Z,99920.19
2022-10-17T14:38:15.673Z,99918.81
2022-10-17T14:41:42.273Z,99914.53
2022-10-17T14:44:52.166Z,99906.78
2022-10-17T14:47:59.918Z,99912.50
2022-10-17T14:51:16.342Z,99913.59
2022-10-17T14:54:27.001Z,99913.25
2022-10-17T14:57:43.383Z,99919.59
2022-10-17T15:00:46.288Z,99920.47
2022-10-17T15:03:48.776Z,99917.84
2022-10-17T15:06:54.809Z,99918.91
2022-10-17T15:09:57.401Z,99921.09
2022-10-17T15:13:26.262Z,99922.84
2022-10-17T15:16:25.949Z,99913.75
2022-10-17T15:19:28.669Z,99920.09
2022-10-17T15:22:31.701Z,99927.53
2022-10-17T15:25:34.932Z,99924.72
2022-10-17T15:28:37.705Z,99924.19
2022-10-17T15:31:41.628Z,99920.81
2022-10-17T15:34:44.585Z,99927.78
2022-10-17T15:37:47.636Z,99924.50
2022-10-17T15:40:52.068Z,99935.19
2022-10-17T15:43:54.959Z,99933.91
2022-10-17T15:46:57.454Z,99937.19
2022-10-17T15:50:01.143Z,99940.22
2022-10-17T15:53:05.854Z,99937.78
2022-10-17T15:56:22.400Z,99940.81
2022-10-17T15:59:31.624Z,99947.13
2022-10-17T16:02:34.388Z,99951.78
2022-10-17T16:05:37.241Z,99950.97
2022-10-17T16:08:39.699Z,99951.66
2022-10-17T16:11:43.424Z,99964.69
2022-10-17T16:14:45.948Z,99951.75
2022-10-17T16:17:49.530Z,99959.38
2022-10-17T16:20:53.298Z,99954.63
2022-10-17T16:23:56.349Z,99904.16
2022-10-17T16:26:58.790Z,99959.28
2022-10-17T16:30:01.838Z,99948.28
2022-10-17T16:33:04.336Z,99962.44
2022-10-17T16:36:07.390Z,99971.59
2022-10-17T16:39:09.917Z,99971.88
2022-10-17T16:42:13.238Z,99968.63
2022-10-17T16:45:21.387Z,99968.88
2022-10-17T16:48:29.529Z,99969.38
2022-10-17T16:51:35.775Z,99971.28
2022-10-17T16:54:39.140Z,99977.22
2022-10-17T17:00:52.273Z,99984.50
2022-10-17T17:03:55.466Z,99987.34
2022-10-17T17:06:58.316Z,99981.09
2022-10-17T17:10:00.898Z,99981.09
2022-10-17T17:13:04.487Z,99983.06
2022-10-17T17:16:08.564Z,99974.12
2022-10-17T17:19:14.420Z,99947.28
2022-10-17T17:22:16.868Z,99975.38
2022-10-17T17:25:19.701Z,99978.25
2022-10-17T17:28:22.402Z,99977.66
2022-10-17T17:31:28.237Z,99984.28
2022-10-17T17:34:32.427Z,99982.69
2022-10-17T17:37:35.634Z,99988.03
2022-10-17T17:40:50.385Z,99985.50
2022-10-17T17:43:54.093Z,99987.53
2022-10-17T17:46:56.567Z,99984.75
2022-10-17T17:49:59.365Z,99977.53
2022-10-17T17:53:01.856Z,99976.97
2022-10-17T17:56:05.844Z,99985.13
2022-10-17T17:59:11.420Z,99975.44
2022-10-17T18:02:14.933Z,99975.63
2022-10-17T18:05:17.863Z,99984.66
2022-10-17T18:08:20.414Z,99980.13
2022-10-17T18:11:23.307Z,99958.72
2022-10-17T18:14:25.988Z,99967.78
2022-10-17T18:17:31.435Z,99983.09
2022-10-17T18:20:35.337Z,99986.91
2022-10-17T18:23:40.765Z,99980.78
2022-10-17T18:26:43.431Z,99981.72
2022-10-17T18:29:46.303Z,99975.72
2022-10-17T18:32:48.812Z,99979.34
2022-10-17T18:35:51.817Z,99981.25
2022-10-17T18:38:55.148Z,99970.59
2022-10-17T18:41:58.043Z,99973.31
2022-10-17T18:45:00.691Z,99969.63
2022-10-17T18:48:03.544Z,99967.81
2022-10-17T18:51:06.571Z,99970.53
2022-10-17T18:54:20.297Z,99958.34
2022-10-17T18:57:26.007Z,99971.09
2022-10-17T19:00:30.397Z,99974.78
2022-10-17T19:03:33.081Z,99971.28
2022-10-17T19:06:35.840Z,99964.09
2022-10-17T19:09:38.870Z,99968.78
2022-10-17T19:12:42.248Z,99967.94
2022-10-17T19:15:44.877Z,99960.91
2022-10-17T19:18:52.277Z,99958.19
2022-10-17T19:21:55.033Z,99954.72
2022-10-17T19:24:57.811Z,99955.72
2022-10-17T19:28:00.515Z,99956.59
2022-10-17T19:31:03.579Z,99955.72
2022-10-17T19:34:06.119Z,99914.31
2022-10-17T19:37:08.967Z,99961.34
2022-10-17T19:40:12.344Z,99956.16
2022-10-17T19:43:15.131Z,99956.16
2022-10-17T19:46:22.294Z,99961.72
2022-10-17T19:49:25.051Z,99953.81
2022-10-17T19:52:28.102Z,99956.72
2022-10-17T19:55:32.678Z,99952.31
2022-10-17T19:58:44.839Z,99950.53
2022-10-17T20:01:47.645Z,99936.34
2022-10-17T20:05:00.134Z,99958.53
2022-10-17T20:08:13.880Z,99958.62
2022-10-17T20:11:26.650Z,99957.84
2022-10-17T20:14:29.195Z,99952.47
2022-10-17T20:17:32.413Z,99968.91
2022-10-17T20:20:35.648Z,99959.91
2022-10-17T20:23:39.793Z,99964.50
2022-10-17T20:26:42.619Z,99973.59
2022-10-17T20:29:45.461Z,99957.84
2022-10-17T20:32:48.012Z,99963.81
2022-10-17T20:35:50.838Z,99963.09
2022-10-17T20:38:55.139Z,99963.91
2022-10-17T20:41:58.083Z,99968.53
2022-10-17T20:45:00.492Z,99972.16
2022-10-17T20:48:04.309Z,99958.16
2022-10-17T20:51:08.699Z,99971.34
2022-10-17T20:54:11.943Z,99967.84
2022-10-17T20:57:14.485Z,99967.16
2022-10-17T21:00:17.170Z,99962.63
2022-10-17T21:03:19.569Z,99963.56
2022-10-17T21:06:23.191Z,99948.41
2022-10-17T21:09:26.067Z,99956.19
2022-10-17T21:12:36.758Z,99963.56
2022-10-17T21:15:45.448Z,99959.12
2022-10-17T21:18:49.435Z,99959.25
2022-10-17T21:21:52.023Z,99959.41
2022-10-17T21:24:54.824Z,99960.66
2022-10-17T21:27:57.292Z,99963.41
2022-10-17T21:31:21.101Z,99962.75
2022-10-17T21:34:25.023Z,99957.69
2022-10-17T21:37:27.958Z,99961.53
2022-10-17T21:40:30.593Z,99958.16
2022-10-17T21:43:34.250Z,99959.50
2022-10-17T21:46:36.706Z,99955.31
2022-10-17T21:49:39.488Z,99933.37
2022-10-17T21:52:41.961Z,99941.28
2022-10-17T21:55:44.754Z,99946.00
2022-10-17T21:58:47.957Z,99932.91
2022-10-17T22:01:50.845Z,99934.56
2022-10-17T22:04:53.625Z,99938.50
2022-10-17T22:07:56.127Z,99943.16
2022-10-17T22:11:04.532Z,99938.69
2022-10-17T22:14:13.137Z,99913.12
2022-10-17T22:17:15.853Z,99925.53
2022-10-17T22:20:20.011Z,99927.47
2022-10-17T22:23:22.741Z,99921.09
2022-10-17T22:26:26.234Z,99926.66
2022-10-17T22:29:29.069Z,99924.69
2022-10-17T22:32:31.579Z,99923.63
2022-10-17T22:35:34.431Z,99925.09
2022-10-17T22:38:37.434Z,99934.84
2022-10-17T22:41:40.385Z,99931.47
2022-10-17T22:44:42.990Z,99925.25
2022-10-17T22:47:45.709Z,99928.00
2022-10-17T22:50:49.598Z,99925.59
2022-10-17T22:53:52.322Z,99924.13
2022-10-17T22:56:54.827Z,99922.72
2022-10-17T22:59:57.619Z,99910.44
2022-10-17T23:03:00.098Z,99930.16
2022-10-17T23:06:03.745Z,99923.16
2022-10-17T23:09:06.297Z,99917.97
2022-10-17T23:12:09.731Z,99916.31
2022-10-17T23:15:12.179Z,99920.06
2022-10-17T23:18:15.181Z,99913.91
2022-10-17T23:21:17.780Z,99915.72
2022-10-17T23:24:20.524Z,99917.56
2022-10-17T23:27:23.345Z,99917.53
2022-10-17T23:30:26.464Z,99918.56
2022-10-17T23:33:29.231Z,99912.22
2022-10-17T23:39:34.542Z,99906.12
2022-10-17T23:42:37.332Z,99908.84
2022-10-17T23:48:43.523Z,99901.84
2022-10-17T23:51:46.011Z,99905.53
2022-10-17T23:54:48.744Z,99904.72
2022-10-17T23:57:51.197Z,99900.34
